createdAt,value
2019-03-04T00:04:34.822Z,100.00
2019-03-04T00:09:37.793Z,100.00
2019-03-04T00:14:41.187Z,100.00
2019-03-04T00:19:44.410Z,100.00
2019-03-04T00:24:47.970Z,100.00
2019-03-04T00:29:51.541Z,100.00
2019-03-04T00:34:54.506Z,100.00
2019-03-04T00:39:58.166Z,100.00
2019-03-04T00:45:00.663Z,100.00
2019-03-04T00:50:04.970Z,100.00
2019-03-04T00:55:08.136Z,100.00
2019-03-04T01:00:17.283Z,100.00
2019-03-04T01:05:38.590Z,100.00
2019-03-04T01:10:44.716Z,100.00
2019-03-04T01:15:48.338Z,100.00
2019-03-04T01:20:51.188Z,100.00
2019-03-04T01:25:54.141Z,100.00
2019-03-04T01:30:57.203Z,100.00
2019-03-04T01:36:00.003Z,100.00
2019-03-04T01:41:03.313Z,100.00
2019-03-04T01:46:07.160Z,100.00
2019-03-04T01:51:10.344Z,100.00
2019-03-04T01:56:13.308Z,100.00
2019-03-04T02:01:16.359Z,100.00
2019-03-04T02:06:19.904Z,100.00
2019-03-04T02:11:22.790Z,100.00
2019-03-04T02:16:26.351Z,100.00
2019-03-04T02:21:29.721Z,100.00
2019-03-04T02:26:34.159Z,99.96
2019-03-04T02:31:37.637Z,100.00
2019-03-04T02:36:40.566Z,99.53
2019-03-04T02:41:43.778Z,99.21
2019-03-04T02:46:46.987Z,99.03
2019-03-04T02:51:50.400Z,98.16
2019-03-04T02:56:53.310Z,98.30
2019-03-04T03:01:56.471Z,98.44
2019-03-04T03:06:59.596Z,98.55
2019-03-04T03:12:02.121Z,99.08
2019-03-04T03:17:05.025Z,99.16
2019-03-04T03:22:08.233Z,99.20
2019-03-04T03:27:11.133Z,99.25
2019-03-04T03:32:14.346Z,98.63
2019-03-04T03:37:17.243Z,98.41
2019-03-04T03:42:20.455Z,98.00
2019-03-04T03:47:22.975Z,97.84
2019-03-04T03:52:25.538Z,97.20
2019-03-04T03:57:29.122Z,97.60
2019-03-04T04:02:32.026Z,96.67
2019-03-04T04:07:35.547Z,95.93
2019-03-04T04:12:38.818Z,95.82
2019-03-04T04:17:41.837Z,94.75
2019-03-04T04:22:44.670Z,94.56
2019-03-04T04:27:48.246Z,94.09
2019-03-04T04:32:51.207Z,93.96
2019-03-04T04:37:54.435Z,93.54
2019-03-04T04:42:57.942Z,93.26
2019-03-04T04:48:01.163Z,93.35
2019-03-04T04:53:04.067Z,92.92
2019-03-04T04:58:07.246Z,91.67
2019-03-04T05:03:10.174Z,91.67
2019-03-04T05:08:13.673Z,91.35
2019-03-04T05:13:17.224Z,90.90
2019-03-04T05:18:20.418Z,91.56
2019-03-04T05:23:23.646Z,91.85
2019-03-04T05:28:27.150Z,91.89
2019-03-04T05:33:30.046Z,91.48
2019-03-04T05:38:33.258Z,90.82
2019-03-04T05:43:36.172Z,90.64
2019-03-04T05:48:39.367Z,90.37
2019-03-04T05:53:42.570Z,90.38
2019-03-04T05:58:45.407Z,92.33
2019-03-04T06:03:48.788Z,95.04
2019-03-04T06:08:51.654Z,96.61
2019-03-04T06:13:54.502Z,97.58
2019-03-04T06:18:57.708Z,98.32
2019-03-04T06:24:00.613Z,98.03
2019-03-04T06:29:03.914Z,97.26
2019-03-04T06:34:07.105Z,96.56
2019-03-04T06:39:10.352Z,95.65
2019-03-04T06:44:13.665Z,93.62
2019-03-04T06:49:17.162Z,92.55
2019-03-04T06:54:54.116Z,92.63
2019-03-04T07:00:48.591Z,91.51
2019-03-04T07:05:52.904Z,89.64
2019-03-04T07:10:56.137Z,87.97
2019-03-04T07:15:59.436Z,86.81
2019-03-04T07:21:02.628Z,86.73
2019-03-04T07:26:05.882Z,85.59
2019-03-04T07:31:08.357Z,85.08
2019-03-04T07:36:11.964Z,84.88
2019-03-04T07:41:14.879Z,84.35
2019-03-04T07:46:18.107Z,84.45
2019-03-04T07:51:20.998Z,83.80
2019-03-04T07:56:24.545Z,82.95
2019-03-04T08:01:27.517Z,82.65
2019-03-04T08:06:30.742Z,82.34
2019-03-04T08:12:22.997Z,82.44
2019-03-04T08:17:25.661Z,82.02
2019-03-04T08:22:28.588Z,81.67
2019-03-04T08:27:31.912Z,81.02
2019-03-04T08:32:34.792Z,79.85
2019-03-04T08:37:38.365Z,79.44
2019-03-04T08:42:41.640Z,78.16
2019-03-04T08:47:44.526Z,77.44
2019-03-04T08:52:47.700Z,76.07
2019-03-04T08:57:51.248Z,75.49
2019-03-04T09:02:54.423Z,75.06
2019-03-04T09:07:57.705Z,74.75
2019-03-04T09:13:00.949Z,75.06
2019-03-04T09:18:04.693Z,75.60
2019-03-04T09:23:07.618Z,84.36
2019-03-04T09:28:10.935Z,86.29
2019-03-04T09:33:14.446Z,88.56
2019-03-04T09:38:17.806Z,87.94
2019-03-04T09:43:21.429Z,88.22
2019-03-04T09:48:25.011Z,88.32
2019-03-04T09:53:28.267Z,88.01
2019-03-04T09:58:30.877Z,90.77
2019-03-04T10:04:33.918Z,92.88
2019-03-04T10:10:08.088Z,92.08
2019-03-04T10:15:44.184Z,93.10
2019-03-04T10:21:17.707Z,91.65
2019-03-04T10:27:06.763Z,89.84
2019-03-04T10:32:54.189Z,88.35
2019-03-04T10:38:11.403Z,87.26
2019-03-04T10:43:30.940Z,85.31
2019-03-04T10:48:33.581Z,84.94
2019-03-04T10:53:36.530Z,85.02
2019-03-04T10:58:40.054Z,84.87
2019-03-04T11:03:43.446Z,83.45
2019-03-04T11:08:46.967Z,82.35
2019-03-04T11:13:50.484Z,80.82
2019-03-04T11:18:54.041Z,80.68
2019-03-04T11:23:57.938Z,79.54
2019-03-04T11:29:00.684Z,79.54
2019-03-04T11:34:04.334Z,78.76
2019-03-04T11:39:25.588Z,80.47
2019-03-04T11:44:28.780Z,86.06
2019-03-04T11:49:31.772Z,87.04
2019-03-04T11:54:35.186Z,89.00
2019-03-04T11:59:38.544Z,89.73
2019-03-04T12:04:42.604Z,88.95
2019-03-04T12:09:45.768Z,88.88
2019-03-04T12:14:48.978Z,90.03
2019-03-04T12:19:52.599Z,89.98
2019-03-04T12:24:55.801Z,91.06
2019-03-04T12:29:58.732Z,93.48
2019-03-04T12:35:02.342Z,92.63
2019-03-04T12:40:07.330Z,91.50
2019-03-04T12:45:12.784Z,91.02
2019-03-04T12:50:21.224Z,90.79
2019-03-04T12:55:24.818Z,90.38
2019-03-04T13:00:28.019Z,88.51
2019-03-04T13:05:31.632Z,87.91
2019-03-04T13:10:34.616Z,90.26
2019-03-04T13:15:37.541Z,89.45
2019-03-04T13:20:40.425Z,88.10
2019-03-04T13:25:43.805Z,81.70
2019-03-04T13:30:47.070Z,80.44
2019-03-04T13:35:50.378Z,80.03
2019-03-04T13:40:55.992Z,81.75
2019-03-04T13:45:58.843Z,83.58
2019-03-04T13:51:02.480Z,82.42
2019-03-04T13:56:05.979Z,79.79
2019-03-04T14:01:09.400Z,80.69
2019-03-04T14:06:13.376Z,80.66
2019-03-04T14:11:16.746Z,80.86
2019-03-04T14:16:19.958Z,81.36
2019-03-04T14:21:23.130Z,83.01
2019-03-04T14:26:26.366Z,84.50
2019-03-04T14:31:28.861Z,86.85
2019-03-04T14:36:32.195Z,89.85
2019-03-04T14:41:35.677Z,92.23
2019-03-04T14:46:38.593Z,92.16
2019-03-04T14:51:41.802Z,95.08
2019-03-04T14:56:44.374Z,95.26
2019-03-04T15:01:47.273Z,95.01
2019-03-04T15:06:50.534Z,95.73
2019-03-04T15:11:53.416Z,94.08
2019-03-04T15:17:03.342Z,93.92
2019-03-04T15:22:02.304Z,94.28
2019-03-04T15:27:06.649Z,95.28
2019-03-04T15:32:10.928Z,96.37
2019-03-04T15:37:16.206Z,94.84
2019-03-04T15:42:19.531Z,96.45
2019-03-04T15:47:22.848Z,96.05
2019-03-04T15:52:25.424Z,95.42
2019-03-04T15:57:28.765Z,95.63
2019-03-04T16:02:32.164Z,95.97
2019-03-04T16:07:35.592Z,96.34
2019-03-04T16:12:38.755Z,96.47
2019-03-04T16:17:41.295Z,96.12
2019-03-04T16:22:44.846Z,96.99
2019-03-04T16:27:48.423Z,96.73
2019-03-04T16:32:52.056Z,96.19
2019-03-04T16:37:55.618Z,96.03
2019-03-04T16:42:59.202Z,96.12
2019-03-04T16:48:02.295Z,96.14
2019-03-04T16:53:06.031Z,96.93
2019-03-04T16:58:09.582Z,96.65
2019-03-04T17:03:13.305Z,97.02
2019-03-04T17:08:16.257Z,96.73
2019-03-04T17:13:19.268Z,95.72
2019-03-04T17:18:22.173Z,96.27
2019-03-04T17:23:24.768Z,96.24
2019-03-04T17:28:28.320Z,96.65
2019-03-04T17:33:31.696Z,96.37
2019-03-04T17:38:35.318Z,96.77
2019-03-04T17:43:38.588Z,97.65
2019-03-04T17:48:42.447Z,97.30
2019-03-04T17:53:46.052Z,96.14
2019-03-04T17:58:49.244Z,95.85
2019-03-04T18:03:54.485Z,96.37
2019-03-04T18:08:58.167Z,96.36
2019-03-04T18:14:01.393Z,96.94
2019-03-04T18:19:04.923Z,96.21
2019-03-04T18:24:08.662Z,96.22
2019-03-04T18:29:39.668Z,95.78
2019-03-04T18:35:13.275Z,94.74
2019-03-04T18:40:47.800Z,95.87
2019-03-04T18:46:19.642Z,96.07
2019-03-04T18:51:22.811Z,95.92
2019-03-04T18:56:26.410Z,95.87
2019-03-04T19:01:30.057Z,94.94
2019-03-04T19:06:35.555Z,95.23
2019-03-04T19:11:42.681Z,93.71
2019-03-04T19:16:47.787Z,94.07
2019-03-04T19:21:55.022Z,92.83
2019-03-04T19:27:02.725Z,92.57
2019-03-04T19:32:10.200Z,92.09
2019-03-04T19:37:18.208Z,92.14
2019-03-04T19:42:28.261Z,92.38
2019-03-04T19:47:35.705Z,89.86
2019-03-04T19:52:44.200Z,89.16
2019-03-04T19:57:51.591Z,88.32
2019-03-04T20:02:59.138Z,87.81
2019-03-04T20:08:09.078Z,86.72
2019-03-04T20:13:16.825Z,86.81
2019-03-04T20:18:21.208Z,86.16
2019-03-04T20:23:25.246Z,85.28
2019-03-04T20:28:32.430Z,84.78
2019-03-04T20:33:39.646Z,85.25
2019-03-04T20:38:48.745Z,84.54
2019-03-04T20:43:55.983Z,84.01
2019-03-04T20:49:03.855Z,83.05
2019-03-04T20:54:11.697Z,82.91
2019-03-04T20:59:18.621Z,82.83
2019-03-04T21:04:25.772Z,82.34
2019-03-04T21:09:33.090Z,82.61
2019-03-04T21:14:40.030Z,81.89
2019-03-04T21:19:44.863Z,82.10
2019-03-04T21:24:48.922Z,82.13
2019-03-04T21:30:42.846Z,81.05
2019-03-04T21:36:19.872Z,81.14
2019-03-04T21:41:43.349Z,80.31
2019-03-04T21:47:08.887Z,80.14
2019-03-04T21:52:37.801Z,80.62
2019-03-04T21:57:46.834Z,80.00
2019-03-04T22:02:56.698Z,79.42
2019-03-04T22:08:00.304Z,79.48
2019-03-04T22:13:04.117Z,79.45
2019-03-04T22:18:08.615Z,79.64
2019-03-04T22:23:11.132Z,80.79
2019-03-04T22:28:14.334Z,81.19
2019-03-04T22:33:17.933Z,82.03
2019-03-04T22:38:21.268Z,82.96
2019-03-04T22:43:24.178Z,83.97
2019-03-04T22:48:27.698Z,84.50
2019-03-04T22:53:30.610Z,84.92
2019-03-04T22:58:34.115Z,84.75
2019-03-04T23:03:37.333Z,84.43
2019-03-04T23:08:40.644Z,84.57
2019-03-04T23:13:53.004Z,84.26
2019-03-04T23:18:56.482Z,84.47
2019-03-04T23:24:00.017Z,84.33
2019-03-04T23:29:03.824Z,84.83
2019-03-04T23:34:07.388Z,85.38
2019-03-04T23:39:10.635Z,85.54
2019-03-04T23:44:14.387Z,85.74
2019-03-04T23:49:17.936Z,84.71
2019-03-04T23:54:22.389Z,84.64
2019-03-04T23:59:25.707Z,84.61
